Time;durP1;ratioP1;P1;durP2;ratioP2;P2;SDS_P1;SDS_P2;PMS_P1;PMS_P2;Temp;Humidity;BMP_temperature;BMP_pressure;BME280_temperature;BME280_humidity;BME280_pressure;Samples;Min_cycle;Max_cycle;Signal;HPM_P1;HPM_P2
2022/10/04 00:01:59;;;;;;;11.00;2.73;;;;;;;11.12;88.12;100876.77;1748577;82;21519;-81
2022/10/04 00:04:31;;;;;;;9.40;2.10;;;;;;;11.07;88.13;100879.13;1749102;82;21066;-81
2022/10/04 00:07:08;;;;;;;10.47;2.83;;;;;;;11.03;88.30;100877.50;1748754;82;21005;-80
2022/10/04 00:09:43;;;;;;;8.93;2.35;;;;;;;10.98;88.24;100875.50;1748879;81;21033;-74
2022/10/04 00:12:34;;;;;;;7.97;2.30;;;;;;;10.91;88.37;100874.81;1748889;82;21466;-81
2022/10/04 00:15:24;;;;;;;11.00;2.37;;;;;;;10.88;88.61;100870.52;1746869;82;21020;-80
2022/10/04 00:18:02;;;;;;;11.70;2.60;;;;;;;10.84;88.57;100874.61;1735089;82;27916;-80
2022/10/04 00:20:53;;;;;;;11.03;1.90;;;;;;;10.79;88.61;100876.51;1701413;82;21049;-81
2022/10/04 00:23:37;;;;;;;9.97;2.13;;;;;;;10.73;88.67;100871.00;1748803;82;21013;-79
2022/10/04 00:26:15;;;;;;;11.73;2.57;;;;;;;10.68;88.78;100873.75;1749142;82;21005;-81
2022/10/04 00:28:45;;;;;;;8.57;2.47;;;;;;;10.63;88.93;100873.48;1748556;82;21056;-81
2022/10/04 00:31:25;;;;;;;13.08;1.95;;;;;;;10.60;89.15;100872.27;1749053;82;21101;-79
2022/10/04 00:34:10;;;;;;;6.57;2.37;;;;;;;10.57;89.23;100874.98;1748655;82;21044;-83
2022/10/04 00:36:56;;;;;;;6.93;1.97;;;;;;;10.53;89.39;100872.02;1705389;82;21005;-83
2022/10/04 00:39:34;;;;;;;6.87;2.40;;;;;;;10.50;89.51;100870.34;1739707;82;21388;-83
2022/10/04 00:42:06;;;;;;;7.70;3.20;;;;;;;10.47;89.61;100873.06;1746389;82;20978;-81
2022/10/04 00:45:03;;;;;;;6.43;1.93;;;;;;;10.43;89.71;100869.68;1711178;82;21288;-82
2022/10/04 00:47:47;;;;;;;6.83;2.13;;;;;;;10.40;89.87;100868.46;1712490;82;21021;-83
2022/10/04 00:50:29;;;;;;;9.23;2.60;;;;;;;10.36;89.86;100874.67;1729264;82;21032;-84
2022/10/04 00:53:01;;;;;;;8.77;2.00;;;;;;;10.32;90.05;100871.75;1743713;82;21238;-84
2022/10/04 00:55:38;;;;;;;8.73;2.07;;;;;;;10.30;90.30;100867.00;1748895;82;21041;-80
2022/10/04 00:58:11;;;;;;;8.33;2.13;;;;;;;10.29;90.39;100870.98;1745422;82;21361;-84
2022/10/04 01:00:40;;;;;;;11.40;2.47;;;;;;;10.28;90.62;100870.10;1733288;82;21465;-83
2022/10/04 01:03:12;;;;;;;8.37;2.10;;;;;;;10.27;90.73;100865.32;1749152;82;20974;-82
2022/10/04 01:05:43;;;;;;;8.60;2.00;;;;;;;10.26;90.84;100859.66;1748925;82;21598;-83
2022/10/04 01:08:15;;;;;;;9.40;2.03;;;;;;;10.26;90.91;100866.66;1749216;82;21065;-82
2022/10/04 01:11:02;;;;;;;11.30;1.90;;;;;;;10.24;90.88;100863.21;1748931;82;21129;-82
2022/10/04 01:14:03;;;;;;;13.13;2.90;;;;;;;10.23;91.07;100865.44;1749031;82;21029;-80
2022/10/04 01:16:38;;;;;;;6.97;1.77;;;;;;;10.22;91.17;100867.63;1728233;82;21518;-84
2022/10/04 01:19:29;;;;;;;7.63;1.77;;;;;;;10.22;91.38;100864.55;1749154;82;21455;-82
2022/10/04 01:22:12;;;;;;;9.50;2.43;;;;;;;10.19;91.52;100861.17;1738236;81;21546;-83
2022/10/04 01:24:43;;;;;;;9.67;2.00;;;;;;;10.19;91.63;100855.93;1736730;82;21129;-78
2022/10/04 01:27:41;;;;;;;8.77;2.20;;;;;;;10.17;91.74;100862.54;1736882;82;21119;-82
2022/10/04 01:30:13;;;;;;;9.00;2.00;;;;;;;10.17;91.72;100861.23;1736673;82;21020;-83
2022/10/04 01:32:41;;;;;;;10.23;2.33;;;;;;;10.14;91.93;100860.44;1717459;82;21066;-83
2022/10/04 01:35:11;;;;;;;14.20;2.23;;;;;;;10.13;92.06;100865.28;1736778;82;21017;-82
2022/10/04 01:37:38;;;;;;;;;;;;;;;10.12;92.14;100857.02;1739631;82;21126;-77
2022/10/04 01:40:08;;;;;;;7.80;2.00;;;;;;;10.09;92.36;100860.58;1731224;82;20140;-83
2022/10/04 01:42:43;;;;;;;12.07;2.83;;;;;;;10.09;92.33;100857.08;1737268;82;21084;-82
2022/10/04 01:45:25;;;;;;;8.70;1.93;;;;;;;10.08;92.58;100857.53;1736771;82;20993;-82
2022/10/04 01:47:57;;;;;;;8.80;2.50;;;;;;;10.09;92.60;100861.89;1715890;82;20993;-83
2022/10/04 01:50:37;;;;;;;10.13;2.40;;;;;;;10.11;92.68;100860.52;1719374;82;21088;-78
2022/10/04 01:53:21;;;;;;;8.87;2.17;;;;;;;10.12;92.99;100857.87;1736505;82;21002;-83
2022/10/04 01:55:52;;;;;;;10.83;2.43;;;;;;;10.13;92.96;100863.97;1736540;82;21518;-82
2022/10/04 01:58:27;;;;;;;7.07;2.27;;;;;;;10.14;93.10;100864.36;1736914;82;21554;-74
2022/10/04 02:01:16;;;;;;;8.47;2.30;;;;;;;10.14;93.20;100860.02;1736707;82;21481;-79
2022/10/04 02:03:55;;;;;;;12.07;2.40;;;;;;;10.17;93.39;100865.58;1715333;82;21120;-84
2022/10/04 02:06:23;;;;;;;9.70;2.27;;;;;;;10.19;93.58;100855.47;1736394;82;21045;-85
2022/10/04 02:08:56;;;;;;;8.67;2.57;;;;;;;10.21;93.56;100860.23;1737055;82;21037;-83
2022/10/04 02:11:21;;;;;;;9.57;2.37;;;;;;;10.26;93.80;100853.56;1736413;82;21491;-78
2022/10/04 02:13:52;;;;;;;7.70;2.10;;;;;;;10.29;93.90;100859.20;1737000;82;21041;-83
2022/10/04 02:16:21;;;;;;;8.07;2.10;;;;;;;10.33;93.98;100851.19;1736619;82;22032;-85
2022/10/04 02:18:50;;;;;;;8.23;2.30;;;;;;;10.38;94.18;100866.78;1736867;82;21092;-82
2022/10/04 02:21:19;;;;;;;11.97;3.23;;;;;;;10.41;94.21;100860.14;1736595;82;21507;-84
2022/10/04 02:23:50;;;;;;;5.90;2.10;;;;;;;10.46;94.27;100863.49;1736639;82;21089;-82
2022/10/04 02:26:17;;;;;;;14.30;2.60;;;;;;;10.48;94.30;100854.69;1736729;82;21005;-84
2022/10/04 02:28:44;;;;;;;10.17;2.33;;;;;;;10.52;94.33;100856.75;1736865;82;21097;-84
2022/10/04 02:33:59;;;;;;;11.03;2.53;;;;;;;10.58;94.34;100864.43;1716669;82;20993;-84
2022/10/04 02:36:28;;;;;;;8.68;2.58;;;;;;;10.60;94.29;100861.31;1736610;82;21025;-83
2022/10/04 02:39:16;;;;;;;10.73;2.17;;;;;;;10.63;94.20;100860.37;1736972;82;20985;-82
2022/10/04 02:42:02;;;;;;;9.17;3.23;;;;;;;10.65;94.31;100861.19;1736677;82;21135;-80
2022/10/04 02:44:38;;;;;;;6.80;2.23;;;;;;;10.68;94.34;100867.66;1735866;82;21088;-84
2022/10/04 02:47:13;;;;;;;9.90;2.17;;;;;;;10.69;94.32;100861.49;1710347;82;20997;-83
2022/10/04 02:49:56;;;;;;;9.13;2.20;;;;;;;10.71;94.32;100862.31;1727680;82;21063;-83
2022/10/04 02:52:35;;;;;;;8.40;2.33;;;;;;;10.72;94.26;100858.77;1727931;82;21459;-83
2022/10/04 02:55:17;;;;;;;10.35;2.10;;;;;;;10.72;94.10;100862.70;1736626;82;21502;-84
2022/10/04 02:57:45;;;;;;;9.78;2.17;;;;;;;10.71;94.22;100862.31;1726440;82;21072;-84
2022/10/04 03:00:19;;;;;;;9.95;2.02;;;;;;;10.71;94.19;100864.94;1736919;82;21060;-82
2022/10/04 03:03:25;;;;;;;9.47;2.03;;;;;;;10.72;94.35;100853.53;1736658;82;21447;-84
2022/10/04 03:06:07;;;;;;;11.68;2.37;;;;;;;10.70;94.20;100861.92;1736636;82;21059;-83
2022/10/04 03:08:45;;;;;;;11.30;2.43;;;;;;;10.71;94.30;100868.87;1736646;82;21137;-82
2022/10/04 03:11:14;;;;;;;8.73;2.20;;;;;;;10.69;94.29;100867.59;1736791;82;21037;-82
2022/10/04 03:13:51;;;;;;;12.77;2.60;;;;;;;10.69;94.42;100866.28;1736642;82;21080;-83
2022/10/04 03:16:19;;;;;;;10.58;2.87;;;;;;;10.69;94.39;100864.11;1736911;82;21024;-83
2022/10/04 03:18:49;;;;;;;8.97;2.50;;;;;;;10.68;94.37;100864.57;1736616;82;21044;-84
2022/10/04 03:21:19;;;;;;;10.25;2.75;;;;;;;10.67;94.36;100869.42;1739855;81;21164;-84
2022/10/04 03:23:50;;;;;;;13.20;2.52;;;;;;;10.63;94.28;100863.84;1745855;82;21061;-84
2022/10/04 03:26:38;;;;;;;8.83;3.00;;;;;;;10.61;94.21;100858.23;1745985;82;21017;-83
2022/10/04 03:29:09;;;;;;;9.67;2.67;;;;;;;10.57;94.30;100867.97;1745495;82;21069;-84
2022/10/04 03:31:45;;;;;;;7.47;2.63;;;;;;;10.55;94.32;100863.21;1746090;82;21522;-84
2022/10/04 03:34:20;;;;;;;11.78;2.72;;;;;;;10.53;94.32;100862.42;1745848;82;21053;-84
2022/10/04 03:36:50;;;;;;;7.83;2.63;;;;;;;10.51;94.34;100859.44;1745746;82;21029;-84
2022/10/04 03:39:34;;;;;;;10.90;2.45;;;;;;;10.48;94.41;100861.23;1746024;82;21040;-85
2022/10/04 03:42:31;;;;;;;7.20;2.40;;;;;;;10.48;94.57;100863.86;1744926;82;21005;-78
2022/10/04 03:45:05;;;;;;;9.53;2.40;;;;;;;10.46;94.55;100863.03;1644850;86;21599;-85
2022/10/04 03:47:36;;;;;;;8.13;2.10;;;;;;;10.44;94.64;100862.21;1644081;86;21133;-83
2022/10/04 03:50:17;;;;;;;9.93;2.27;;;;;;;10.42;94.53;100860.11;1662219;86;21067;-79
2022/10/04 03:52:54;;;;;;;9.17;2.20;;;;;;;10.41;94.58;100864.92;1701561;84;21093;-78
2022/10/04 03:55:29;;;;;;;6.13;1.80;;;;;;;10.40;94.56;100867.61;1708647;84;21543;-81
2022/10/04 03:57:57;;;;;;;10.23;2.20;;;;;;;10.39;94.63;100872.00;1707765;84;21388;-84
2022/10/04 04:00:24;;;;;;;9.20;1.87;;;;;;;10.38;94.52;100865.47;1703857;84;21163;-84
2022/10/04 04:02:58;;;;;;;7.87;2.37;;;;;;;10.37;94.60;100870.32;1706366;84;21545;-83
2022/10/04 04:05:52;;;;;;;8.50;1.93;;;;;;;10.37;94.62;100870.32;1708361;84;22895;-82
2022/10/04 04:08:38;;;;;;;10.00;2.60;;;;;;;10.36;94.64;100872.05;1705928;84;21546;-83
2022/10/04 04:11:08;;;;;;;10.90;2.37;;;;;;;10.35;94.61;100876.05;1705578;84;21062;-83
2022/10/04 04:13:48;;;;;;;11.20;2.37;;;;;;;10.33;94.63;100877.84;1685187;84;21097;-83
2022/10/04 04:16:15;;;;;;;10.77;2.20;;;;;;;10.32;94.64;100880.06;1756787;80;20955;-84
2022/10/04 04:18:44;;;;;;;8.67;2.10;;;;;;;10.32;94.74;100884.00;1791317;79;21498;-79
2022/10/04 04:21:16;;;;;;;10.33;1.87;;;;;;;10.30;94.73;100885.34;1791551;80;21087;-82
2022/10/04 04:23:49;;;;;;;7.00;1.83;;;;;;;10.29;94.77;100882.32;1769919;80;21231;-83
2022/10/04 04:26:24;;;;;;;10.00;2.17;;;;;;;10.28;94.77;100879.27;1791859;80;21101;-81
2022/10/04 04:28:59;;;;;;;9.40;1.90;;;;;;;10.27;94.87;100884.12;1791832;79;21001;-83
2022/10/04 04:31:55;;;;;;;8.43;2.30;;;;;;;10.27;94.85;100882.35;1792345;79;20988;-82
2022/10/04 04:34:29;;;;;;;8.40;1.57;;;;;;;10.26;95.02;100885.84;1780943;80;21016;-79
2022/10/04 04:37:02;;;;;;;13.50;2.03;;;;;;;10.27;95.08;100890.20;1775915;78;21636;-71
2022/10/04 04:39:36;;;;;;;6.00;2.07;;;;;;;10.26;95.07;100895.02;1770270;78;21112;-75
2022/10/04 04:42:22;;;;;;;7.57;1.60;;;;;;;10.25;95.17;100892.00;1762232;78;21065;-74
2022/10/04 04:45:06;;;;;;;6.30;1.77;;;;;;;10.24;95.17;100892.88;1779099;78;21524;-73
2022/10/04 04:47:40;;;;;;;10.73;2.70;;;;;;;10.22;95.14;100888.59;1780931;78;21016;-73
2022/10/04 04:50:19;;;;;;;10.87;1.97;;;;;;;10.21;95.08;100894.73;1781301;78;21087;-73
2022/10/04 04:52:59;;;;;;;10.67;1.93;;;;;;;10.19;95.18;100895.22;1783567;78;21016;-73
2022/10/04 04:55:29;;;;;;;;;;;;;;;10.17;95.25;100891.78;1781323;78;21485;-75
2022/10/04 04:57:57;;;;;;;14.50;2.10;;;;;;;10.15;95.46;100894.46;1776139;78;20171;-74
2022/10/04 05:00:32;;;;;;;7.47;2.03;;;;;;;10.13;95.39;100894.94;1777771;78;21028;-72
2022/10/04 05:03:02;;;;;;;7.23;1.83;;;;;;;10.12;95.41;100899.78;1777962;78;21051;-74
2022/10/04 05:05:32;;;;;;;14.07;2.62;;;;;;;10.11;95.46;100900.66;1777204;78;21183;-78
2022/10/04 05:08:23;;;;;;;8.40;2.00;;;;;;;10.10;95.57;100898.11;1783322;78;21059;-78
2022/10/04 05:11:05;;;;;;;10.13;2.03;;;;;;;10.11;95.59;100901.98;1781881;78;21083;-76
2022/10/04 05:13:55;;;;;;;11.07;1.97;;;;;;;10.10;95.61;100912.51;1785721;78;21056;-77
2022/10/04 05:16:42;;;;;;;7.53;2.30;;;;;;;10.08;95.66;100905.99;1784723;78;21047;-78
2022/10/04 05:19:20;;;;;;;8.63;2.40;;;;;;;10.07;95.63;100912.59;1784092;78;21155;-76
2022/10/04 05:21:50;;;;;;;10.27;2.60;;;;;;;10.05;95.67;100915.24;1783958;78;21017;-78
2022/10/04 05:24:33;;;;;;;11.45;2.12;;;;;;;10.04;95.77;100918.77;1786393;78;21031;-73
2022/10/04 05:27:05;;;;;;;5.97;2.00;;;;;;;10.04;96.02;100916.16;1782625;78;21063;-78
2022/10/04 05:29:37;;;;;;;11.30;2.27;;;;;;;10.04;95.94;100913.08;1780874;78;21024;-77
2022/10/04 05:32:30;;;;;;;8.30;2.10;;;;;;;10.04;95.95;100918.31;1786107;78;21181;-77
2022/10/04 05:34:59;;;;;;;9.60;2.10;;;;;;;10.05;96.17;100921.79;1725426;81;21024;-77
2022/10/04 05:37:49;;;;;;;10.80;2.30;;;;;;;10.08;96.19;100923.47;1726678;81;21070;-75
2022/10/04 05:40:24;;;;;;;9.10;2.02;;;;;;;10.08;96.23;100922.16;1727499;81;21018;-75
2022/10/04 05:42:53;;;;;;;9.33;2.87;;;;;;;10.11;96.36;100929.94;1717359;81;21027;-74
2022/10/04 05:45:26;;;;;;;9.67;2.30;;;;;;;10.13;96.41;100932.07;1737316;81;21959;-77
2022/10/04 05:47:57;;;;;;;11.07;2.00;;;;;;;10.16;96.50;100929.37;1726612;82;21055;-77
2022/10/04 05:50:39;;;;;;;11.03;2.40;;;;;;;10.18;96.51;100931.50;1729786;81;21029;-75
2022/10/04 05:53:23;;;;;;;9.60;2.63;;;;;;;10.21;96.56;100943.20;1720860;81;21044;-77
2022/10/04 05:56:31;;;;;;;9.57;2.43;;;;;;;10.21;96.65;100945.37;1732102;81;21026;-75
2022/10/04 05:59:28;;;;;;;6.27;1.90;;;;;;;10.25;96.72;100945.72;1731826;81;21093;-77
2022/10/04 06:02:25;;;;;;;7.77;2.03;;;;;;;10.32;96.94;100948.19;1719181;82;21476;-77
2022/10/04 06:05:06;;;;;;;9.47;2.23;;;;;;;10.38;97.14;100954.57;1721467;81;21045;-75
2022/10/04 06:08:10;;;;;;;7.40;2.13;;;;;;;10.44;97.12;100953.94;1733289;81;21030;-78
2022/10/04 06:11:08;;;;;;;12.30;2.40;;;;;;;10.51;97.17;100962.97;1719265;82;21011;-79
2022/10/04 06:14:08;;;;;;;9.63;2.43;;;;;;;10.56;97.21;100963.67;1719534;82;21131;-81
2022/10/04 06:16:58;;;;;;;9.73;2.65;;;;;;;10.64;97.31;100964.31;1722907;81;21053;-81
2022/10/04 06:19:51;;;;;;;7.67;2.35;;;;;;;10.70;97.28;100966.33;1724716;81;21564;-78
2022/10/04 06:22:21;;;;;;;8.40;2.10;;;;;;;10.75;97.23;100970.11;1721629;81;21074;-79
2022/10/04 06:25:01;;;;;;;11.77;2.53;;;;;;;10.80;97.13;100977.40;1721983;82;21030;-78
2022/10/04 06:27:44;;;;;;;9.07;2.40;;;;;;;10.83;97.13;100975.14;1722100;82;21240;-75
2022/10/04 06:30:17;;;;;;;8.03;2.43;;;;;;;10.87;97.25;100973.70;1724560;81;20995;-76
2022/10/04 06:32:52;;;;;;;9.40;2.23;;;;;;;10.94;97.29;100974.38;1720512;82;22175;-76
2022/10/04 06:35:50;;;;;;;11.65;2.55;;;;;;;11.02;97.33;100978.09;1709839;81;21074;-77
2022/10/04 06:39:13;;;;;;;13.53;2.17;;;;;;;11.12;97.41;100979.55;1722545;81;21051;-74
2022/10/04 06:42:04;;;;;;;7.65;2.10;;;;;;;11.25;97.45;100984.84;1721205;81;21508;-72
2022/10/04 06:44:55;;;;;;;12.05;2.77;;;;;;;11.45;97.52;100983.36;1721470;81;20999;-77
2022/10/04 06:47:42;;;;;;;10.08;2.37;;;;;;;11.59;97.54;100984.63;1723538;81;21114;-76
2022/10/04 06:50:32;;;;;;;10.10;2.45;;;;;;;11.71;97.25;100982.06;1731147;81;20988;-78
2022/10/04 06:53:27;;;;;;;7.67;2.12;;;;;;;11.78;96.88;100988.84;1751492;81;21176;-73
2022/10/04 06:56:17;;;;;;;9.30;2.42;;;;;;;11.86;96.65;100999.14;1749835;81;21199;-77
2022/10/04 06:59:30;;;;;;;7.28;1.80;;;;;;;11.95;96.42;100996.20;1741320;81;20998;-82
2022/10/04 07:02:07;;;;;;;9.68;1.90;;;;;;;12.05;96.30;100992.37;1731876;81;21034;-76
2022/10/04 07:04:58;;;;;;;7.37;2.45;;;;;;;12.16;96.10;100992.44;1726984;81;21507;-80
2022/10/04 07:07:36;;;;;;;9.43;2.98;;;;;;;12.21;95.89;100987.88;1736218;81;21023;-77
2022/10/04 07:10:20;;;;;;;10.28;2.45;;;;;;;12.31;95.74;100999.81;1720332;81;21097;-73
2022/10/04 07:13:04;;;;;;;8.58;2.50;;;;;;;12.40;95.57;100996.00;1731017;81;21050;-74
2022/10/04 07:16:09;;;;;;;8.10;3.00;;;;;;;12.49;95.55;101002.23;1726977;81;22109;-73
2022/10/04 07:19:08;;;;;;;7.83;2.72;;;;;;;12.59;95.37;101004.95;1730331;81;21075;-78
2022/10/04 07:21:43;;;;;;;6.95;2.25;;;;;;;12.74;95.33;101006.16;1734343;81;21007;-78
2022/10/04 07:24:13;;;;;;;8.98;2.67;;;;;;;12.87;95.17;101008.75;1730362;81;21297;-73
2022/10/04 07:26:47;;;;;;;15.32;3.47;;;;;;;12.97;95.06;101008.39;1734688;81;21042;-76
2022/10/04 07:29:29;;;;;;;6.55;2.12;;;;;;;13.01;94.62;101012.18;1734162;81;21027;-80
2022/10/04 07:32:10;;;;;;;8.45;2.33;;;;;;;12.99;94.01;101014.00;1732645;81;21027;-77
2022/10/04 07:35:00;;;;;;;10.15;2.60;;;;;;;12.92;93.50;101021.28;1745930;81;21070;-77
2022/10/04 07:37:28;;;;;;;;;;;;;;;12.86;93.31;101012.77;1740076;81;21247;-76
2022/10/04 07:40:07;;;;;;;7.25;2.52;;;;;;;12.82;92.92;101021.67;1732647;81;20316;-79
2022/10/04 07:42:48;;;;;;;9.85;2.50;;;;;;;12.84;93.14;101022.48;1735093;81;20995;-75
2022/10/04 07:45:26;;;;;;;11.18;2.60;;;;;;;12.89;93.23;101024.48;1732943;81;20951;-79
2022/10/04 07:48:12;;;;;;;9.33;2.22;;;;;;;12.94;93.12;101031.30;1737327;81;21027;-76
2022/10/04 07:50:51;;;;;;;6.83;1.90;;;;;;;12.98;92.82;101028.55;1722866;81;21132;-75
2022/10/04 07:53:32;;;;;;;6.12;1.75;;;;;;;13.02;92.64;101040.66;1732282;81;21010;-78
2022/10/04 07:56:09;;;;;;;6.40;1.75;;;;;;;13.08;92.32;101034.73;1751716;81;22252;-73
2022/10/04 07:59:06;;;;;;;12.80;2.98;;;;;;;13.12;91.98;101035.01;1734936;81;21031;-74
2022/10/04 08:01:53;;;;;;;9.85;2.27;;;;;;;13.15;91.79;101037.52;1750340;81;20976;-75
2022/10/04 08:04:50;;;;;;;7.05;1.40;;;;;;;13.21;91.76;101040.37;1753031;81;21196;-80
2022/10/04 08:07:45;;;;;;;8.73;2.00;;;;;;;13.31;91.80;101043.11;1724850;81;21482;-76
2022/10/04 08:10:34;;;;;;;9.18;1.82;;;;;;;13.42;91.39;101044.02;1754030;81;21486;-81
2022/10/04 08:13:25;;;;;;;8.23;2.10;;;;;;;13.44;90.86;101044.83;1754493;81;21012;-81
2022/10/04 08:15:54;;;;;;;8.00;1.50;;;;;;;13.46;90.80;101042.97;1754904;81;21030;-79
2022/10/04 08:18:57;;;;;;;9.78;2.00;;;;;;;13.49;90.67;101047.25;1754418;81;21015;-81
2022/10/04 08:21:31;;;;;;;10.20;2.10;;;;;;;13.46;90.20;101051.33;1754737;81;21552;-82
2022/10/04 08:24:23;;;;;;;6.80;1.65;;;;;;;13.44;89.88;101051.84;1753933;81;21015;-75
2022/10/04 08:27:23;;;;;;;7.30;1.87;;;;;;;13.50;89.74;101062.16;1754659;81;21488;-78
2022/10/04 08:30:10;;;;;;;6.22;2.00;;;;;;;13.56;89.61;101063.23;1743295;81;21039;-80
2022/10/04 08:33:05;;;;;;;7.70;1.85;;;;;;;13.66;89.61;101057.98;1723891;81;21125;-79
2022/10/04 08:35:50;;;;;;;7.53;1.77;;;;;;;13.64;88.91;101066.89;1732199;81;20900;-82
2022/10/04 08:38:43;;;;;;;4.87;1.75;;;;;;;13.55;88.39;101070.28;1732146;81;20983;-82
2022/10/04 08:41:55;;;;;;;7.33;2.30;;;;;;;13.48;88.22;101075.38;1718674;81;21408;-80
2022/10/04 08:45:02;;;;;;;7.47;2.40;;;;;;;13.61;88.61;101076.63;1721907;81;21006;-77
2022/10/04 08:48:11;;;;;;;6.22;1.67;;;;;;;13.89;88.82;101074.22;1724323;81;21133;-75
2022/10/04 08:51:17;;;;;;;5.70;1.90;;;;;;;14.12;88.13;101092.20;1735513;81;21008;-83
2022/10/04 08:54:24;;;;;;;5.95;1.67;;;;;;;14.22;87.34;101077.73;1754809;81;21490;-79
2022/10/04 08:57:20;;;;;;;5.45;2.02;;;;;;;14.24;86.68;101075.42;1754538;81;21512;-83
2022/10/04 09:00:12;;;;;;;7.70;1.70;;;;;;;14.23;86.47;101078.11;1754458;81;21003;-81
2022/10/04 09:02:57;;;;;;;5.78;1.82;;;;;;;14.24;86.13;101082.45;1754389;81;21110;-78
2022/10/04 09:05:56;;;;;;;8.20;1.62;;;;;;;14.27;85.76;101081.00;1753552;81;20888;-83
2022/10/04 09:09:17;;;;;;;5.90;1.67;;;;;;;14.51;86.16;101083.08;1754836;81;21031;-81
2022/10/04 09:11:57;;;;;;;7.60;1.80;;;;;;;14.72;85.62;101082.67;1754970;81;20992;-83
2022/10/04 09:14:45;;;;;;;4.83;2.02;;;;;;;14.94;85.27;101086.08;1754744;81;21058;-83
2022/10/04 09:17:22;;;;;;;6.10;1.85;;;;;;;14.95;84.57;101079.86;1733330;81;21109;-85
2022/10/04 09:20:07;;;;;;;5.40;1.90;;;;;;;14.81;83.85;101096.77;1748306;81;21055;-81
2022/10/04 09:22:57;;;;;;;8.18;2.58;;;;;;;14.72;83.52;101101.14;1752265;81;21038;-80
2022/10/04 09:25:51;;;;;;;;;;;;;;;14.68;83.51;101105.67;1757316;81;21004;-81
2022/10/04 09:28:52;;;;;;;9.88;2.52;;;;;;;14.69;83.08;101099.95;1729706;81;20421;-82
2022/10/04 09:31:49;;;;;;;10.05;1.85;;;;;;;14.69;83.21;101111.36;1728679;81;22024;-80
2022/10/04 09:34:49;;;;;;;6.62;2.02;;;;;;;14.66;83.03;101102.70;1726944;81;21026;-80
2022/10/04 09:37:42;;;;;;;5.83;1.72;;;;;;;14.62;82.23;101101.13;1726641;81;21019;-80
2022/10/04 09:40:39;;;;;;;6.87;1.92;;;;;;;14.65;81.89;101099.67;1728128;81;21063;-81
2022/10/04 09:43:27;;;;;;;4.97;1.70;;;;;;;15.01;82.50;101102.95;1731962;81;21046;-80
2022/10/04 09:46:28;;;;;;;6.47;1.90;;;;;;;15.11;81.58;101102.48;1731740;81;21094;-79
2022/10/04 09:49:06;;;;;;;7.80;1.67;;;;;;;15.19;81.19;101108.75;1730788;81;20931;-78
2022/10/04 09:52:03;;;;;;;6.62;2.50;;;;;;;15.23;81.23;101105.50;1728367;81;21007;-76
2022/10/04 09:55:04;;;;;;;11.50;2.17;;;;;;;15.25;80.44;101102.33;1730245;81;21452;-80
2022/10/04 09:58:06;;;;;;;10.43;1.85;;;;;;;15.25;80.44;101102.33;1725645;81;21018;-77
2022/10/04 10:01:11;;;;;;;5.12;1.72;;;;;;;15.66;80.92;101100.86;1741002;81;21193;-78
2022/10/04 10:04:11;;;;;;;6.92;2.08;;;;;;;15.86;79.96;101112.72;1685254;83;21035;-79
2022/10/04 10:07:02;;;;;;;6.22;2.05;;;;;;;16.16;80.02;101117.00;1681661;83;21038;-81
2022/10/04 10:16:00;;;;;;;7.53;1.92;;;;;;;17.32;78.08;101097.39;1681692;83;21188;-76
2022/10/04 10:19:04;;;;;;;8.35;1.82;;;;;;;17.69;77.10;101098.89;1681216;83;21117;-79
2022/10/04 10:22:17;;;;;;;6.00;1.55;;;;;;;17.78;76.14;101110.33;1681493;83;21362;-79
2022/10/04 10:25:12;;;;;;;5.95;1.42;;;;;;;17.67;75.23;101114.50;1681615;83;21035;-78
2022/10/04 10:27:57;;;;;;;4.25;1.35;;;;;;;17.56;74.72;101122.56;1668967;85;21036;-78
2022/10/04 10:30:38;;;;;;;4.80;1.45;;;;;;;17.44;74.09;101122.39;1640641;86;21953;-77
2022/10/04 10:33:25;;;;;;;5.10;1.42;;;;;;;17.12;73.85;101126.28;1681471;84;21042;-79
2022/10/04 10:36:15;;;;;;;5.67;1.50;;;;;;;17.17;74.22;101129.55;1680824;83;21039;-79
2022/10/04 10:39:22;;;;;;;8.05;1.92;;;;;;;17.50;74.15;101123.38;1669838;84;21127;-77
2022/10/04 10:42:20;;;;;;;5.62;1.57;;;;;;;17.89;73.65;101123.47;1710360;82;21045;-79
2022/10/04 10:45:28;;;;;;;5.08;1.42;;;;;;;18.29;73.39;101122.07;1719032;82;21203;-80
2022/10/04 10:48:18;;;;;;;4.00;1.50;;;;;;;18.84;73.25;101125.94;1719202;82;21510;-81
2022/10/04 10:50:58;;;;;;;6.42;1.57;;;;;;;19.32;71.91;101125.23;1719885;82;21045;-80
2022/10/04 10:54:04;;;;;;;9.90;1.45;;;;;;;19.39;70.71;101126.06;1724880;82;21037;-79
2022/10/04 10:56:44;;;;;;;6.10;1.62;;;;;;;19.33;70.13;101135.76;1746577;82;21016;-79
2022/10/04 10:59:50;;;;;;;5.67;1.30;;;;;;;18.82;68.51;101135.83;1748816;82;22030;-76
2022/10/04 11:02:35;;;;;;;5.00;1.42;;;;;;;18.26;68.02;101139.47;1736256;82;20988;-81
2022/10/04 11:05:38;;;;;;;4.95;1.25;;;;;;;17.89;68.22;101142.89;1748912;82;21057;-82
2022/10/04 11:08:28;;;;;;;3.92;1.10;;;;;;;17.79;68.83;101143.00;1748878;82;20990;-79
2022/10/04 11:11:16;;;;;;;6.87;1.65;;;;;;;18.15;69.11;101138.78;1748300;82;21033;-82
2022/10/04 11:14:27;;;;;;;5.70;1.70;;;;;;;18.32;68.05;101131.63;1749087;82;21094;-80
2022/10/04 11:17:31;;;;;;;5.28;1.10;;;;;;;18.54;67.92;101133.44;1748702;82;21002;-77
2022/10/04 11:20:36;;;;;;;4.72;1.47;;;;;;;18.85;67.97;101139.63;1749053;82;21518;-82
2022/10/04 11:23:41;;;;;;;4.70;1.40;;;;;;;19.34;67.27;101132.62;1748769;82;21463;-79
2022/10/04 11:26:45;;;;;;;6.22;1.20;;;;;;;19.52;66.65;101150.58;1748866;82;21033;-81
2022/10/04 11:29:29;;;;;;;4.25;1.20;;;;;;;19.53;65.84;101140.30;1748911;82;21152;-80
2022/10/04 11:32:20;;;;;;;4.03;0.93;;;;;;;19.04;64.86;101136.69;1747635;82;21523;-77
2022/10/04 11:35:35;;;;;;;3.47;1.20;;;;;;;18.41;64.84;101139.08;1694874;83;20985;-80
2022/10/04 11:38:34;;;;;;;3.70;1.20;;;;;;;17.81;64.46;101141.13;1731506;82;21053;-82
2022/10/04 11:41:24;;;;;;;4.03;1.20;;;;;;;18.11;65.51;101146.52;1749019;82;20990;-81
2022/10/04 11:44:17;;;;;;;;;;;;;;;18.56;65.36;101137.31;1727700;80;21115;-83
2022/10/04 11:46:59;;;;;;;3.72;1.00;;;;;;;18.95;64.69;101148.72;1717759;82;20168;-82
2022/10/04 11:49:46;;;;;;;3.58;1.47;;;;;;;19.33;64.87;101133.09;1718948;82;21040;-81
2022/10/04 11:52:42;;;;;;;6.35;1.70;;;;;;;19.85;64.81;101137.46;1742586;81;21004;-82
2022/10/04 11:55:41;;;;;;;3.72;1.57;;;;;;;20.00;63.42;101136.45;1755127;81;21295;-81
2022/10/04 11:58:31;;;;;;;7.60;4.20;;;;;;;19.60;62.55;101143.81;1759604;81;21126;-81
2022/10/04 12:01:29;;;;;;;5.75;2.40;;;;;;;19.14;61.94;101139.17;1749180;81;21007;-81
2022/10/04 12:04:46;;;;;;;3.85;1.70;;;;;;;18.71;61.99;101138.60;1722278;83;20971;-77
2022/10/04 12:07:46;;;;;;;2.77;1.35;;;;;;;18.40;61.81;101138.67;1754296;81;20948;-73
2022/10/04 12:10:36;;;;;;;4.75;1.62;;;;;;;18.25;62.32;101129.81;1701649;83;21462;-76
2022/10/04 12:13:38;;;;;;;5.65;1.40;;;;;;;18.46;62.32;101129.91;1754489;81;21469;-77
2022/10/04 12:16:46;;;;;;;5.80;1.42;;;;;;;18.58;62.34;101125.66;1716119;83;21023;-80
2022/10/04 12:19:55;;;;;;;10.98;4.90;;;;;;;18.93;61.68;101127.58;1722458;81;21059;-78
2022/10/04 12:23:10;;;;;;;3.77;1.82;;;;;;;19.34;61.69;101121.98;1732650;82;21019;-84
2022/10/04 12:26:15;;;;;;;5.47;1.52;;;;;;;19.46;60.82;101127.89;1726897;82;21013;-78
2022/10/04 12:29:18;;;;;;;4.97;1.45;;;;;;;19.67;60.49;101126.17;1718592;81;22258;-83
2022/10/04 12:31:58;;;;;;;4.58;1.20;;;;;;;20.00;60.17;101124.00;1729508;81;21501;-83
2022/10/04 12:34:35;;;;;;;3.67;1.22;;;;;;;19.92;59.61;101124.97;1726990;81;21436;-85
2022/10/04 12:37:36;;;;;;;3.25;0.80;;;;;;;19.88;59.29;101123.95;1721698;81;21059;-80
2022/10/04 12:40:14;;;;;;;3.45;1.10;;;;;;;19.72;58.79;101119.61;1723708;81;21079;-83
2022/10/04 12:43:05;;;;;;;2.77;1.10;;;;;;;19.88;58.62;101124.80;1724465;81;21123;-84
2022/10/04 12:46:16;;;;;;;2.75;0.90;;;;;;;20.10;58.69;101117.61;1732744;82;21069;-84
2022/10/04 12:48:54;;;;;;;4.28;1.02;;;;;;;20.49;58.69;101121.25;1723677;81;20995;-85
2022/10/04 12:51:44;;;;;;;2.65;0.82;;;;;;;20.60;57.88;101119.23;1731959;81;21050;-78
2022/10/04 12:54:35;;;;;;;2.55;0.82;;;;;;;20.70;57.76;101117.63;1754882;81;21194;-79
2022/10/04 12:57:29;;;;;;;2.33;0.80;;;;;;;20.53;56.55;101117.44;1754912;81;21107;-78